createdAt,value
2023-07-22T00:00:53.913Z,0.95
2023-07-22T00:03:53.904Z,1.25
2023-07-22T00:06:53.878Z,0.7
2023-07-22T00:09:53.850Z,0.9
2023-07-22T00:12:53.779Z,1.15
2023-07-22T00:15:53.780Z,1.15
2023-07-22T00:18:53.851Z,1.25
2023-07-22T00:21:53.833Z,1.4
2023-07-22T00:24:53.854Z,1
2023-07-22T00:27:53.809Z,0.85
2023-07-22T00:30:53.929Z,1.45
2023-07-22T00:33:53.903Z,1.05
2023-07-22T00:36:53.884Z,1.85
2023-07-22T00:39:53.881Z,1.35
2023-07-22T00:42:53.822Z,1.25
2023-07-22T00:45:53.821Z,0.85
2023-07-22T00:48:53.868Z,0.95
2023-07-22T00:51:53.837Z,1.45
2023-07-22T00:54:53.846Z,0.9
2023-07-22T00:57:53.830Z,1.2
2023-07-22T01:00:53.946Z,1.3
2023-07-22T01:03:53.840Z,1.3
2023-07-22T01:06:53.847Z,1.4
2023-07-22T01:09:53.906Z,1.1
2023-07-22T01:12:53.881Z,1.35
2023-07-22T01:15:53.856Z,1.25
2023-07-22T01:18:53.906Z,1.1
2023-07-22T01:21:53.839Z,1.5
2023-07-22T01:24:53.989Z,1.2
2023-07-22T01:27:53.833Z,1.2
2023-07-22T01:30:53.887Z,1.3
2023-07-22T01:33:53.844Z,1.15
2023-07-22T01:36:53.887Z,0.95
2023-07-22T01:39:53.870Z,1
2023-07-22T01:42:54.298Z,1.3
2023-07-22T01:45:53.994Z,1.15
2023-07-22T01:48:53.961Z,0.95
2023-07-22T01:54:53.943Z,1.3
2023-07-22T01:57:54.142Z,1.4
2023-07-22T02:00:54.146Z,0.65
2023-07-22T02:03:54.075Z,1.15
2023-07-22T02:06:53.977Z,1.2
2023-07-22T02:09:53.977Z,1.55
2023-07-22T02:12:53.909Z,0.95
2023-07-22T02:15:53.991Z,0.8
2023-07-22T02:18:54.006Z,0.85
2023-07-22T02:21:53.909Z,0.7
2023-07-22T02:24:54.050Z,0.85
2023-07-22T02:27:54.141Z,1.45
2023-07-22T02:30:53.928Z,1.1
2023-07-22T02:33:54.376Z,0.95
2023-07-22T02:36:53.942Z,0.9
2023-07-22T02:39:53.907Z,0.85
2023-07-22T02:42:53.956Z,1.5
2023-07-22T02:45:54.030Z,0.95
2023-07-22T02:48:54.080Z,0.65
2023-07-22T02:51:53.909Z,0.95
2023-07-22T02:54:54.311Z,1.5
2023-07-22T02:57:54.005Z,1.05
2023-07-22T03:00:54.219Z,1
2023-07-22T03:03:54.070Z,1.15
2023-07-22T03:06:53.960Z,1.3
2023-07-22T03:09:53.992Z,1.35
2023-07-22T03:12:53.921Z,0.8
2023-07-22T03:15:54.123Z,1.1
2023-07-22T03:18:53.992Z,1.25
2023-07-22T03:21:53.975Z,0.8
2023-07-22T03:24:54.003Z,0.9
2023-07-22T03:27:54.150Z,0.95
2023-07-22T03:33:53.932Z,0.95
2023-07-22T03:36:54.022Z,0.8
2023-07-22T03:39:53.996Z,1.35
2023-07-22T03:42:53.984Z,1
2023-07-22T03:45:54.076Z,0.75
2023-07-22T03:48:54.056Z,0.8
2023-07-22T03:51:53.985Z,0.85
2023-07-22T03:54:53.957Z,0.95
2023-07-22T03:57:54.014Z,0.85
2023-07-22T04:00:54.093Z,1.35
2023-07-22T04:03:54.077Z,1.1
2023-07-22T04:06:54.026Z,1.05
2023-07-22T04:09:54.067Z,1.05
2023-07-22T04:12:53.991Z,0.95
2023-07-22T04:15:54.071Z,1.4
2023-07-22T04:18:54.627Z,1.3
2023-07-22T04:21:54.037Z,1.25
2023-07-22T04:24:54.398Z,1.2
2023-07-22T04:27:54.085Z,0.85
2023-07-22T04:30:54.040Z,0.85
2023-07-22T04:33:54.039Z,1.15
2023-07-22T04:36:54.113Z,0.85
2023-07-22T04:39:54.026Z,0.8
2023-07-22T04:42:54.039Z,0.75
2023-07-22T04:45:54.068Z,0.65
2023-07-22T04:48:54.467Z,0.5
2023-07-22T04:51:54.567Z,0.7
2023-07-22T04:54:54.026Z,0.8
2023-07-22T04:57:54.037Z,0.5
2023-07-22T05:00:54.172Z,1.15
2023-07-22T05:03:54.552Z,1.05
2023-07-22T05:06:54.356Z,0.85
2023-07-22T05:09:54.106Z,0.75
2023-07-22T05:12:54.134Z,0.95
2023-07-22T05:15:54.163Z,1.1
2023-07-22T05:18:54.499Z,0.85
2023-07-22T05:21:54.181Z,0.9
2023-07-22T05:24:54.264Z,1
2023-07-22T05:27:54.072Z,0.5
2023-07-22T05:30:54.224Z,0.7
2023-07-22T05:33:54.111Z,0.5
2023-07-22T05:36:54.110Z,0.5
2023-07-22T05:39:54.155Z,0.85
2023-07-22T05:42:54.395Z,1.05
2023-07-22T05:45:54.164Z,1.1
2023-07-22T05:48:54.163Z,1
2023-07-22T05:51:54.131Z,1.05
2023-07-22T05:54:54.176Z,0.65
2023-07-22T05:57:54.116Z,0.8
2023-07-22T06:00:54.110Z,0.65
2023-07-22T06:03:54.368Z,1.15
2023-07-22T06:06:54.167Z,0.75
2023-07-22T06:09:54.238Z,1.35
2023-07-22T06:12:54.166Z,1.45
2023-07-22T06:15:54.223Z,0.8
2023-07-22T06:18:54.112Z,1.3
2023-07-22T06:21:55.201Z,0.7
2023-07-22T06:24:54.245Z,1
2023-07-22T06:27:57.367Z,1.2
2023-07-22T06:30:54.248Z,1.5
2023-07-22T06:33:54.234Z,1.15
2023-07-22T06:36:54.163Z,0.95
2023-07-22T06:39:54.260Z,1.4
2023-07-22T06:42:54.302Z,1.8
2023-07-22T06:45:54.213Z,1.15
2023-07-22T06:48:54.456Z,1.3
2023-07-22T06:51:54.278Z,1.1
2023-07-22T06:54:54.193Z,0.7
2023-07-22T06:57:54.225Z,1.25
2023-07-22T07:00:54.160Z,1.1
2023-07-22T07:03:54.429Z,1.55
2023-07-22T07:06:54.129Z,1.2
2023-07-22T07:09:54.247Z,1.25
2023-07-22T07:12:54.143Z,1.65
2023-07-22T07:15:54.298Z,1
2023-07-22T07:18:54.244Z,1.4
2023-07-22T07:21:54.106Z,1.85
2023-07-22T07:24:54.163Z,1.25
2023-07-22T07:27:54.189Z,1.25
2023-07-22T07:30:56.663Z,1
2023-07-22T07:33:54.177Z,1.4
2023-07-22T07:36:56.271Z,1.25
2023-07-22T07:39:54.237Z,1.4
2023-07-22T07:42:54.214Z,1.9
2023-07-22T07:45:54.774Z,1.45
2023-07-22T07:48:54.570Z,1.75
2023-07-22T07:51:54.189Z,1.5
2023-07-22T07:54:54.312Z,1.3
2023-07-22T07:57:54.310Z,2
2023-07-22T08:00:54.162Z,1
2023-07-22T08:03:54.282Z,1.7
2023-07-22T08:06:54.265Z,1.55
2023-07-22T08:09:54.137Z,2.05
2023-07-22T08:12:54.438Z,1.55
2023-07-22T08:15:54.443Z,1.7
2023-07-22T08:18:54.273Z,1.1
2023-07-22T08:21:54.218Z,1.45
2023-07-22T08:24:55.045Z,1.4
2023-07-22T08:27:54.306Z,2
2023-07-22T08:30:54.363Z,1.65
2023-07-22T08:33:54.201Z,1.2
2023-07-22T08:36:54.297Z,1.9
2023-07-22T08:39:54.206Z,1.6
2023-07-22T08:42:54.282Z,1.35
2023-07-22T08:45:54.355Z,1.8
2023-07-22T08:48:54.217Z,1.75
2023-07-22T08:51:54.310Z,1.7
2023-07-22T08:54:54.294Z,1.05
2023-07-22T08:57:54.315Z,1.4
2023-07-22T09:00:54.337Z,1.7
2023-07-22T09:03:54.383Z,1.45
2023-07-22T09:06:54.362Z,1.7
2023-07-22T09:09:54.605Z,2.35
2023-07-22T09:12:54.356Z,1.6
2023-07-22T09:15:54.391Z,1.85
2023-07-22T09:18:54.362Z,1.95
2023-07-22T09:21:54.393Z,2.25
2023-07-22T09:24:54.350Z,1.9
2023-07-22T09:27:54.308Z,1.95
2023-07-22T09:30:54.429Z,1.55
2023-07-22T09:33:54.373Z,2.15
2023-07-22T09:36:54.268Z,1
2023-07-22T09:39:54.365Z,2
2023-07-22T09:42:54.301Z,1
2023-07-22T09:45:54.362Z,1.6
2023-07-22T09:48:54.444Z,1.55
2023-07-22T09:52:03.096Z,1.8
2023-07-22T09:54:54.356Z,1.55
2023-07-22T09:57:54.340Z,1.3
2023-07-22T10:00:54.355Z,1.25
2023-07-22T10:03:54.271Z,1.4
2023-07-22T10:06:54.429Z,1.5
2023-07-22T10:09:54.305Z,1.4
2023-07-22T10:12:54.380Z,1.4
2023-07-22T10:15:54.382Z,2.25
2023-07-22T10:18:54.354Z,1.75
2023-07-22T10:21:54.374Z,1.45
2023-07-22T10:24:54.493Z,1.35
2023-07-22T10:27:54.412Z,1
2023-07-22T10:30:54.444Z,1.4
2023-07-22T10:33:54.505Z,1.25
2023-07-22T10:36:54.461Z,2.4
2023-07-22T10:39:54.417Z,1.5
2023-07-22T10:42:54.364Z,0.95
2023-07-22T10:45:54.407Z,1.2
2023-07-22T10:48:54.328Z,0.9
2023-07-22T10:51:54.424Z,1.05
2023-07-22T10:54:54.409Z,1.35
2023-07-22T10:57:54.789Z,1.45
2023-07-22T11:00:54.404Z,1.55
2023-07-22T11:03:54.417Z,1.7
2023-07-22T11:06:54.483Z,2.45
2023-07-22T11:09:54.813Z,1.8
2023-07-22T11:12:54.429Z,1.35
2023-07-22T11:15:54.416Z,1.65
2023-07-22T11:18:54.448Z,1.75
2023-07-22T11:21:54.405Z,1.45
2023-07-22T11:24:54.500Z,2.25
2023-07-22T11:27:54.467Z,1.9
2023-07-22T11:30:54.504Z,1.5
2023-07-22T11:33:54.461Z,1.5
2023-07-22T11:36:54.486Z,1.75
2023-07-22T11:39:54.473Z,2
2023-07-22T11:42:54.505Z,1.25
2023-07-22T11:45:54.487Z,1.95
2023-07-22T11:48:54.414Z,1.4
2023-07-22T11:51:54.477Z,1.6
2023-07-22T11:54:54.445Z,1.4
2023-07-22T11:57:54.543Z,1.8
2023-07-22T12:01:05.629Z,1.4
2023-07-22T12:03:54.571Z,1.9
2023-07-22T12:06:54.439Z,0.9
2023-07-22T12:09:54.473Z,1.2
2023-07-22T12:12:54.438Z,1.55
2023-07-22T12:15:54.472Z,1.25
2023-07-22T12:18:54.493Z,0.85
2023-07-22T12:21:54.518Z,0.5
2023-07-22T12:24:54.401Z,1.55
2023-07-22T12:27:54.550Z,1.5
2023-07-22T12:30:54.928Z,1.05
2023-07-22T12:33:55.077Z,1.4
2023-07-22T12:36:54.520Z,1.9
2023-07-22T12:39:54.440Z,1.9
2023-07-22T12:42:54.450Z,1.95
2023-07-22T12:45:54.598Z,1.45
2023-07-22T12:48:54.467Z,1.9
2023-07-22T12:51:54.661Z,1.55
2023-07-22T12:54:54.807Z,1.85
2023-07-22T12:57:54.485Z,1.65
2023-07-22T13:00:54.691Z,1.65
2023-07-22T13:03:54.590Z,1.55
2023-07-22T13:06:54.548Z,1.5
2023-07-22T13:10:03.801Z,2
2023-07-22T13:12:54.522Z,2.15
2023-07-22T13:15:55.804Z,1.8
2023-07-22T13:18:54.565Z,1.85
2023-07-22T13:21:54.599Z,1.35
2023-07-22T13:24:54.527Z,3.6
2023-07-22T13:27:54.502Z,1.9
2023-07-22T13:30:55.045Z,2.05
2023-07-22T13:33:54.505Z,0.95
2023-07-22T13:36:55.128Z,1.55
2023-07-22T13:39:54.588Z,1.7
2023-07-22T13:42:54.600Z,1.35
2023-07-22T13:45:54.550Z,2.7
2023-07-22T13:48:54.614Z,2.25
2023-07-22T13:51:54.514Z,1.35
2023-07-22T13:54:54.517Z,1.25
2023-07-22T13:57:54.618Z,1.2
2023-07-22T14:00:54.694Z,1.7
2023-07-22T14:03:55.645Z,1.6
2023-07-22T14:06:54.683Z,1.7
2023-07-22T14:09:54.622Z,1.55
2023-07-22T14:12:54.617Z,2.05
2023-07-22T14:15:55.490Z,1.15
2023-07-22T14:18:54.570Z,1.7
2023-07-22T14:21:54.589Z,0.8
2023-07-22T14:24:54.631Z,1.1
2023-07-22T14:27:54.631Z,1.85
2023-07-22T14:30:54.736Z,1
2023-07-22T14:33:54.636Z,1.4
2023-07-22T14:36:54.589Z,2.2
2023-07-22T14:39:54.655Z,1.75
2023-07-22T14:42:54.588Z,0.95
2023-07-22T14:45:54.654Z,1.15
2023-07-22T14:48:54.574Z,1.25
2023-07-22T14:51:54.576Z,0.95
2023-07-22T14:54:54.689Z,1
2023-07-22T14:57:54.615Z,0.7
2023-07-22T15:00:54.775Z,0.7
2023-07-22T15:03:54.716Z,1.4
2023-07-22T15:06:54.546Z,0.9
2023-07-22T15:09:54.634Z,1.15
2023-07-22T15:12:54.765Z,0.85
2023-07-22T15:15:54.689Z,1.1
2023-07-22T15:18:54.837Z,1.25
2023-07-22T15:21:54.626Z,1.3
2023-07-22T15:24:54.756Z,1
2023-07-22T15:27:54.657Z,0.75
2023-07-22T15:30:54.676Z,1.15
2023-07-22T15:33:54.702Z,0.8
2023-07-22T15:36:54.621Z,1.15
2023-07-22T15:39:54.655Z,1.6
2023-07-22T15:42:54.744Z,1.4
2023-07-22T15:45:55.015Z,1.25
2023-07-22T15:48:54.661Z,1.35
2023-07-22T15:51:54.651Z,0.95
2023-07-22T15:54:54.661Z,1.5
2023-07-22T15:57:54.701Z,1.35
2023-07-22T16:00:54.716Z,1.35
2023-07-22T16:03:54.762Z,1.1
2023-07-22T16:06:54.755Z,1.6
2023-07-22T16:09:55.124Z,1.05
2023-07-22T16:12:54.798Z,0.85
2023-07-22T16:15:54.783Z,1.05
2023-07-22T16:18:54.737Z,1.25
2023-07-22T16:21:54.671Z,1.1
2023-07-22T16:24:54.807Z,2.2
2023-07-22T16:27:54.621Z,2.15
2023-07-22T16:30:54.645Z,1.75
2023-07-22T16:33:54.657Z,1.05
2023-07-22T16:36:54.696Z,1.3
2023-07-22T16:39:54.685Z,1.25
2023-07-22T16:42:54.774Z,1.55
2023-07-22T16:45:54.714Z,0.8
2023-07-22T16:48:54.780Z,2.1
2023-07-22T16:51:54.746Z,1.6
2023-07-22T16:54:54.750Z,2
2023-07-22T16:57:55.073Z,2.05
2023-07-22T17:00:54.952Z,1.7
2023-07-22T17:03:54.800Z,1.15
2023-07-22T17:06:54.695Z,1.45
2023-07-22T17:09:54.789Z,1.5
2023-07-22T17:12:54.757Z,1.25
2023-07-22T17:15:54.816Z,1.4
2023-07-22T17:18:54.677Z,1.6
2023-07-22T17:21:54.770Z,0.95
2023-07-22T17:24:54.868Z,1.3
2023-07-22T17:27:54.813Z,1.15
2023-07-22T17:30:54.766Z,1.25
2023-07-22T17:33:54.702Z,1.6
2023-07-22T17:36:54.818Z,1.25
2023-07-22T17:39:54.730Z,1.4
2023-07-22T17:42:54.828Z,1.75
2023-07-22T17:45:54.765Z,0.95
2023-07-22T17:48:54.821Z,1.4
2023-07-22T17:51:54.788Z,1.3
2023-07-22T17:54:54.974Z,1.45
2023-07-22T17:57:54.769Z,1.2
2023-07-22T18:00:54.888Z,0.85
2023-07-22T18:03:55.507Z,0.9
2023-07-22T18:06:54.765Z,0.7
2023-07-22T18:09:54.906Z,0.85
2023-07-22T18:12:54.802Z,0.65
2023-07-22T18:15:54.846Z,0.25
2023-07-22T18:18:54.900Z,0.4
2023-07-22T18:21:54.918Z,0.2
2023-07-22T18:24:54.875Z,0.35
2023-07-22T18:27:54.881Z,0.2
2023-07-22T18:30:54.890Z,0.4
2023-07-22T18:33:54.850Z,0.65
2023-07-22T18:36:54.884Z,0.3
2023-07-22T18:39:54.865Z,0.3
2023-07-22T18:42:54.862Z,0.3
2023-07-22T18:45:54.799Z,0.25
2023-07-22T18:48:54.890Z,0.2
2023-07-22T18:51:54.873Z,0.15
2023-07-22T18:54:55.248Z,0.2
2023-07-22T18:57:54.841Z,0.35
2023-07-22T19:00:54.931Z,0.25
2023-07-22T19:03:54.980Z,0.25
2023-07-22T19:06:54.903Z,0.45
2023-07-22T19:09:54.822Z,0.3
2023-07-22T19:12:54.835Z,0.4
2023-07-22T19:15:54.877Z,0.25
2023-07-22T19:18:54.899Z,0.3
2023-07-22T19:21:54.895Z,0.5
2023-07-22T19:24:54.961Z,0.5
2023-07-22T19:27:54.946Z,0.3
2023-07-22T19:30:54.925Z,0.3
2023-07-22T19:33:54.864Z,0.3
2023-07-22T19:36:54.911Z,0.35
2023-07-22T19:39:54.865Z,0.35
2023-07-22T19:42:54.863Z,0.35
2023-07-22T19:45:54.967Z,0.35
2023-07-22T19:48:54.882Z,0.3
2023-07-22T19:51:54.943Z,0.4
2023-07-22T19:54:54.929Z,0.35
2023-07-22T19:57:54.857Z,0.25
2023-07-22T20:00:54.850Z,0.25
2023-07-22T20:03:55.203Z,0.4
2023-07-22T20:06:54.910Z,0.2
2023-07-22T20:09:54.844Z,0.25
2023-07-22T20:12:54.987Z,0.4
2023-07-22T20:15:55.106Z,0.35
2023-07-22T20:18:54.896Z,0.3
2023-07-22T20:21:58.733Z,0.25
2023-07-22T20:24:54.872Z,0.25
2023-07-22T20:27:54.942Z,0.25
2023-07-22T20:30:58.123Z,0.15
2023-07-22T20:33:54.921Z,0.3
2023-07-22T20:36:54.946Z,0.25
2023-07-22T20:39:54.893Z,0.25
2023-07-22T20:42:55.000Z,0.3
2023-07-22T20:45:55.080Z,0.15
2023-07-22T20:48:54.977Z,0.25
2023-07-22T20:51:55.008Z,0.2
2023-07-22T20:54:54.962Z,0.2
2023-07-22T20:57:55.012Z,0.3
2023-07-22T21:00:55.127Z,0.3
2023-07-22T21:03:55.041Z,0.2
2023-07-22T21:06:54.988Z,0.2
2023-07-22T21:09:55.000Z,0.3
2023-07-22T21:12:54.949Z,0.3
2023-07-22T21:15:54.985Z,0.3
2023-07-22T21:18:54.943Z,0.25
2023-07-22T21:21:55.060Z,0.3
2023-07-22T21:24:55.057Z,0.3
2023-07-22T21:27:55.021Z,0.2
2023-07-22T21:30:55.068Z,0.35
2023-07-22T21:33:55.794Z,0.35
2023-07-22T21:36:54.986Z,0.4
2023-07-22T21:39:54.972Z,0.3
2023-07-22T21:42:54.914Z,0.35
2023-07-22T21:45:55.013Z,0.35
2023-07-22T21:48:55.046Z,0.45
2023-07-22T21:51:55.024Z,0.85
2023-07-22T21:54:55.084Z,0.45
2023-07-22T21:57:54.990Z,0.5
2023-07-22T22:00:55.079Z,0.45
2023-07-22T22:03:55.019Z,0.35
2023-07-22T22:06:55.024Z,0.35
2023-07-22T22:09:54.948Z,0.4
2023-07-22T22:12:55.084Z,0.4
2023-07-22T22:15:55.051Z,0.45
2023-07-22T22:18:55.100Z,0.35
2023-07-22T22:21:55.086Z,0.6
2023-07-22T22:24:55.154Z,0.5
2023-07-22T22:27:55.067Z,0.65
2023-07-22T22:30:55.103Z,0.55
2023-07-22T22:33:54.984Z,0.65
2023-07-22T22:36:55.063Z,0.55
2023-07-22T22:39:55.022Z,0.5
2023-07-22T22:42:55.113Z,0.5
2023-07-22T22:45:55.065Z,0.3
2023-07-22T22:48:55.049Z,0.6
2023-07-22T22:51:55.171Z,0.6
2023-07-22T22:54:55.080Z,0.85
2023-07-22T22:57:55.103Z,0.65
2023-07-22T23:00:55.096Z,0.7
2023-07-22T23:03:55.178Z,0.65
2023-07-22T23:06:55.149Z,0.85
2023-07-22T23:09:55.121Z,0.8
2023-07-22T23:12:55.106Z,0.95
2023-07-22T23:15:55.220Z,0.65
2023-07-22T23:18:55.077Z,0.7
2023-07-22T23:21:55.096Z,0.65
2023-07-22T23:24:57.713Z,0.8
2023-07-22T23:27:55.099Z,0.55
2023-07-22T23:30:55.093Z,0.65
2023-07-22T23:33:55.110Z,0.8
2023-07-22T23:36:55.116Z,0.6
2023-07-22T23:39:55.379Z,0.65
2023-07-22T23:42:55.190Z,0.75
2023-07-22T23:45:55.144Z,0.7
2023-07-22T23:48:55.493Z,0.8
2023-07-22T23:51:55.060Z,0.95
2023-07-22T23:54:55.441Z,0.8
2023-07-22T23:57:55.047Z,0.65
